sensor_id;sensor_type;location;lat;lon;timestamp;P1;durP1;ratioP1;P2;durP2;ratioP2
59109;SDS011;44895;47.438;18.978;2024-03-02T00:02:29;28.33;;;20.35;;
59109;SDS011;44895;47.438;18.978;2024-03-02T00:05:33;27.63;;;19.83;;
59109;SDS011;44895;47.438;18.978;2024-03-02T00:08:36;26.80;;;20.83;;
59109;SDS011;44895;47.438;18.978;2024-03-02T00:11:40;26.65;;;19.73;;
59109;SDS011;44895;47.438;18.978;2024-03-02T00:14:43;29.73;;;19.40;;
59109;SDS011;44895;47.438;18.978;2024-03-02T00:17:47;30.67;;;22.00;;
59109;SDS011;44895;47.438;18.978;2024-03-02T00:20:56;27.75;;;21.23;;
59109;SDS011;44895;47.438;18.978;2024-03-02T00:24:01;29.25;;;21.60;;
59109;SDS011;44895;47.438;18.978;2024-03-02T00:27:09;27.55;;;21.13;;
59109;SDS011;44895;47.438;18.978;2024-03-02T00:33:59;27.65;;;19.08;;
59109;SDS011;44895;47.438;18.978;2024-03-02T00:37:08;26.13;;;21.15;;
59109;SDS011;44895;47.438;18.978;2024-03-02T00:40:13;28.73;;;20.20;;
59109;SDS011;44895;47.438;18.978;2024-03-02T00:43:35;30.73;;;22.45;;
59109;SDS011;44895;47.438;18.978;2024-03-02T00:46:48;27.55;;;18.90;;
59109;SDS011;44895;47.438;18.978;2024-03-02T00:49:51;33.72;;;20.88;;
59109;SDS011;44895;47.438;18.978;2024-03-02T00:52:55;28.83;;;19.17;;
59109;SDS011;44895;47.438;18.978;2024-03-02T00:55:59;30.20;;;21.08;;
59109;SDS011;44895;47.438;18.978;2024-03-02T00:59:04;32.63;;;21.50;;
59109;SDS011;44895;47.438;18.978;2024-03-02T01:02:08;28.40;;;20.02;;
59109;SDS011;44895;47.438;18.978;2024-03-02T01:05:12;30.30;;;21.15;;
59109;SDS011;44895;47.438;18.978;2024-03-02T01:08:15;26.17;;;19.08;;
59109;SDS011;44895;47.438;18.978;2024-03-02T01:11:19;32.85;;;19.67;;
59109;SDS011;44895;47.438;18.978;2024-03-02T01:14:26;27.65;;;19.42;;
59109;SDS011;44895;47.438;18.978;2024-03-02T01:17:30;26.70;;;18.55;;
59109;SDS011;44895;47.438;18.978;2024-03-02T01:20:33;31.65;;;19.55;;
59109;SDS011;44895;47.438;18.978;2024-03-02T01:23:38;27.63;;;18.20;;
59109;SDS011;44895;47.438;18.978;2024-03-02T01:26:41;30.98;;;18.75;;
59109;SDS011;44895;47.438;18.978;2024-03-02T01:29:45;24.48;;;20.35;;
59109;SDS011;44895;47.438;18.978;2024-03-02T01:32:49;28.70;;;20.58;;
59109;SDS011;44895;47.438;18.978;2024-03-02T01:35:53;25.88;;;20.80;;
59109;SDS011;44895;47.438;18.978;2024-03-02T01:38:57;27.17;;;19.40;;
59109;SDS011;44895;47.438;18.978;2024-03-02T01:42:00;27.58;;;17.88;;
59109;SDS011;44895;47.438;18.978;2024-03-02T01:45:05;25.45;;;18.05;;
59109;SDS011;44895;47.438;18.978;2024-03-02T01:48:09;27.05;;;19.63;;
59109;SDS011;44895;47.438;18.978;2024-03-02T01:51:13;26.63;;;19.77;;
59109;SDS011;44895;47.438;18.978;2024-03-02T01:54:17;27.35;;;20.10;;
59109;SDS011;44895;47.438;18.978;2024-03-02T01:57:21;26.83;;;19.05;;
59109;SDS011;44895;47.438;18.978;2024-03-02T02:00:25;25.13;;;18.55;;
59109;SDS011;44895;47.438;18.978;2024-03-02T02:03:29;24.52;;;18.67;;
59109;SDS011;44895;47.438;18.978;2024-03-02T02:06:33;29.17;;;18.95;;
59109;SDS011;44895;47.438;18.978;2024-03-02T02:09:37;31.58;;;20.00;;
59109;SDS011;44895;47.438;18.978;2024-03-02T02:12:40;24.25;;;18.65;;
59109;SDS011;44895;47.438;18.978;2024-03-02T02:15:44;28.42;;;18.80;;
59109;SDS011;44895;47.438;18.978;2024-03-02T02:18:48;27.27;;;20.17;;
59109;SDS011;44895;47.438;18.978;2024-03-02T02:21:52;25.05;;;17.20;;
59109;SDS011;44895;47.438;18.978;2024-03-02T02:24:55;26.70;;;18.77;;
59109;SDS011;44895;47.438;18.978;2024-03-02T02:27:59;27.60;;;19.30;;
59109;SDS011;44895;47.438;18.978;2024-03-02T02:31:03;23.67;;;16.05;;
59109;SDS011;44895;47.438;18.978;2024-03-02T02:34:07;29.83;;;21.05;;
59109;SDS011;44895;47.438;18.978;2024-03-02T02:37:10;27.58;;;20.23;;
59109;SDS011;44895;47.438;18.978;2024-03-02T02:40:14;30.13;;;20.23;;
59109;SDS011;44895;47.438;18.978;2024-03-02T02:43:18;27.45;;;18.85;;
59109;SDS011;44895;47.438;18.978;2024-03-02T02:46:21;23.58;;;16.75;;
59109;SDS011;44895;47.438;18.978;2024-03-02T02:49:25;23.77;;;17.20;;
59109;SDS011;44895;47.438;18.978;2024-03-02T02:52:32;28.35;;;18.38;;
59109;SDS011;44895;47.438;18.978;2024-03-02T02:55:36;23.00;;;18.85;;
59109;SDS011;44895;47.438;18.978;2024-03-02T02:58:43;27.95;;;18.63;;
59109;SDS011;44895;47.438;18.978;2024-03-02T03:01:47;29.23;;;19.25;;
59109;SDS011;44895;47.438;18.978;2024-03-02T03:04:51;26.10;;;18.80;;
59109;SDS011;44895;47.438;18.978;2024-03-02T03:07:54;26.35;;;19.48;;
59109;SDS011;44895;47.438;18.978;2024-03-02T03:10:58;31.08;;;20.45;;
59109;SDS011;44895;47.438;18.978;2024-03-02T03:14:02;23.70;;;16.67;;
59109;SDS011;44895;47.438;18.978;2024-03-02T03:17:06;25.63;;;18.73;;
59109;SDS011;44895;47.438;18.978;2024-03-02T03:20:11;26.75;;;18.45;;
59109;SDS011;44895;47.438;18.978;2024-03-02T03:23:15;36.80;;;20.15;;
59109;SDS011;44895;47.438;18.978;2024-03-02T03:26:20;23.52;;;17.55;;
59109;SDS011;44895;47.438;18.978;2024-03-02T03:29:23;26.08;;;18.40;;
59109;SDS011;44895;47.438;18.978;2024-03-02T03:32:27;28.40;;;21.25;;
59109;SDS011;44895;47.438;18.978;2024-03-02T03:35:32;31.23;;;21.20;;
59109;SDS011;44895;47.438;18.978;2024-03-02T03:38:36;35.53;;;20.77;;
59109;SDS011;44895;47.438;18.978;2024-03-02T03:41:42;28.25;;;17.77;;
59109;SDS011;44895;47.438;18.978;2024-03-02T03:44:46;25.97;;;18.77;;
59109;SDS011;44895;47.438;18.978;2024-03-02T03:47:50;26.20;;;18.70;;
59109;SDS011;44895;47.438;18.978;2024-03-02T03:50:54;26.52;;;18.45;;
59109;SDS011;44895;47.438;18.978;2024-03-02T03:53:57;24.85;;;18.00;;
59109;SDS011;44895;47.438;18.978;2024-03-02T03:57:01;24.30;;;17.25;;
59109;SDS011;44895;47.438;18.978;2024-03-02T04:00:05;28.10;;;18.23;;
59109;SDS011;44895;47.438;18.978;2024-03-02T04:03:16;24.30;;;16.92;;
59109;SDS011;44895;47.438;18.978;2024-03-02T04:06:19;28.65;;;21.30;;
59109;SDS011;44895;47.438;18.978;2024-03-02T04:09:23;29.25;;;19.15;;
59109;SDS011;44895;47.438;18.978;2024-03-02T04:12:27;26.15;;;17.90;;
59109;SDS011;44895;47.438;18.978;2024-03-02T04:15:31;32.17;;;19.45;;
59109;SDS011;44895;47.438;18.978;2024-03-02T04:18:34;26.73;;;20.10;;
59109;SDS011;44895;47.438;18.978;2024-03-02T04:21:38;28.88;;;20.70;;
59109;SDS011;44895;47.438;18.978;2024-03-02T04:24:42;29.45;;;19.98;;
59109;SDS011;44895;47.438;18.978;2024-03-02T04:27:45;28.70;;;21.73;;
59109;SDS011;44895;47.438;18.978;2024-03-02T04:30:49;29.70;;;19.45;;
59109;SDS011;44895;47.438;18.978;2024-03-02T04:33:53;26.33;;;18.52;;
59109;SDS011;44895;47.438;18.978;2024-03-02T04:36:57;29.15;;;20.00;;
59109;SDS011;44895;47.438;18.978;2024-03-02T04:40:01;27.98;;;19.80;;
59109;SDS011;44895;47.438;18.978;2024-03-02T04:43:05;30.40;;;19.80;;
59109;SDS011;44895;47.438;18.978;2024-03-02T04:46:09;28.95;;;21.17;;
59109;SDS011;44895;47.438;18.978;2024-03-02T04:49:12;30.98;;;21.15;;
59109;SDS011;44895;47.438;18.978;2024-03-02T04:52:17;25.08;;;18.65;;
59109;SDS011;44895;47.438;18.978;2024-03-02T04:55:20;27.33;;;19.95;;
59109;SDS011;44895;47.438;18.978;2024-03-02T04:59:00;27.88;;;18.73;;
59109;SDS011;44895;47.438;18.978;2024-03-02T05:02:03;30.40;;;20.58;;
59109;SDS011;44895;47.438;18.978;2024-03-02T05:05:07;30.83;;;20.73;;
59109;SDS011;44895;47.438;18.978;2024-03-02T05:08:11;33.25;;;22.45;;
59109;SDS011;44895;47.438;18.978;2024-03-02T05:11:15;31.70;;;20.42;;
59109;SDS011;44895;47.438;18.978;2024-03-02T05:14:37;30.42;;;21.35;;
59109;SDS011;44895;47.438;18.978;2024-03-02T05:17:41;29.33;;;19.10;;
59109;SDS011;44895;47.438;18.978;2024-03-02T05:20:48;27.83;;;18.95;;
59109;SDS011;44895;47.438;18.978;2024-03-02T05:23:52;28.85;;;19.15;;
59109;SDS011;44895;47.438;18.978;2024-03-02T05:26:56;32.25;;;19.52;;
59109;SDS011;44895;47.438;18.978;2024-03-02T05:29:59;32.08;;;20.50;;
59109;SDS011;44895;47.438;18.978;2024-03-02T05:33:03;29.30;;;20.13;;
59109;SDS011;44895;47.438;18.978;2024-03-02T05:36:07;28.52;;;20.05;;
59109;SDS011;44895;47.438;18.978;2024-03-02T05:39:10;31.15;;;21.98;;
59109;SDS011;44895;47.438;18.978;2024-03-02T05:42:14;27.23;;;20.55;;
59109;SDS011;44895;47.438;18.978;2024-03-02T05:45:20;31.17;;;23.65;;
59109;SDS011;44895;47.438;18.978;2024-03-02T05:48:23;28.20;;;21.10;;
59109;SDS011;44895;47.438;18.978;2024-03-02T05:51:27;29.45;;;20.63;;
59109;SDS011;44895;47.438;18.978;2024-03-02T05:54:31;35.67;;;22.10;;
59109;SDS011;44895;47.438;18.978;2024-03-02T05:57:35;25.75;;;20.98;;
59109;SDS011;44895;47.438;18.978;2024-03-02T06:00:47;30.42;;;21.00;;
59109;SDS011;44895;47.438;18.978;2024-03-02T06:03:51;29.63;;;20.10;;
59109;SDS011;44895;47.438;18.978;2024-03-02T06:06:54;29.25;;;21.15;;
59109;SDS011;44895;47.438;18.978;2024-03-02T06:09:59;29.95;;;19.52;;
59109;SDS011;44895;47.438;18.978;2024-03-02T06:13:03;33.67;;;23.45;;
59109;SDS011;44895;47.438;18.978;2024-03-02T06:16:07;31.60;;;21.83;;
59109;SDS011;44895;47.438;18.978;2024-03-02T06:19:11;31.15;;;21.88;;
59109;SDS011;44895;47.438;18.978;2024-03-02T06:22:15;33.25;;;23.05;;
59109;SDS011;44895;47.438;18.978;2024-03-02T06:25:19;28.30;;;21.48;;
59109;SDS011;44895;47.438;18.978;2024-03-02T06:28:22;29.80;;;23.27;;
59109;SDS011;44895;47.438;18.978;2024-03-02T06:31:26;30.77;;;22.38;;
59109;SDS011;44895;47.438;18.978;2024-03-02T06:34:30;106.88;;;50.65;;
59109;SDS011;44895;47.438;18.978;2024-03-02T06:37:34;80.90;;;47.72;;
59109;SDS011;44895;47.438;18.978;2024-03-02T06:40:38;51.53;;;29.35;;
59109;SDS011;44895;47.438;18.978;2024-03-02T06:43:42;41.22;;;28.08;;
59109;SDS011;44895;47.438;18.978;2024-03-02T06:46:46;38.20;;;26.55;;
59109;SDS011;44895;47.438;18.978;2024-03-02T06:49:50;33.70;;;21.23;;
59109;SDS011;44895;47.438;18.978;2024-03-02T06:52:54;29.05;;;22.98;;
59109;SDS011;44895;47.438;18.978;2024-03-02T06:55:59;32.17;;;22.95;;
59109;SDS011;44895;47.438;18.978;2024-03-02T06:59:03;29.80;;;22.75;;
59109;SDS011;44895;47.438;18.978;2024-03-02T07:02:07;33.78;;;23.90;;
59109;SDS011;44895;47.438;18.978;2024-03-02T07:05:12;33.97;;;24.35;;
59109;SDS011;44895;47.438;18.978;2024-03-02T07:08:16;31.23;;;23.80;;
59109;SDS011;44895;47.438;18.978;2024-03-02T07:11:20;30.42;;;22.67;;
59109;SDS011;44895;47.438;18.978;2024-03-02T07:14:23;32.67;;;23.17;;
59109;SDS011;44895;47.438;18.978;2024-03-02T07:17:50;28.30;;;21.52;;
59109;SDS011;44895;47.438;18.978;2024-03-02T07:20:53;29.80;;;22.67;;
59109;SDS011;44895;47.438;18.978;2024-03-02T07:23:58;35.08;;;24.98;;
59109;SDS011;44895;47.438;18.978;2024-03-02T07:27:02;33.53;;;23.67;;
59109;SDS011;44895;47.438;18.978;2024-03-02T07:30:07;33.85;;;22.60;;
59109;SDS011;44895;47.438;18.978;2024-03-02T07:33:11;31.20;;;23.90;;
59109;SDS011;44895;47.438;18.978;2024-03-02T07:36:15;31.58;;;24.77;;
59109;SDS011;44895;47.438;18.978;2024-03-02T07:39:18;38.22;;;24.13;;
59109;SDS011;44895;47.438;18.978;2024-03-02T07:42:22;36.03;;;23.13;;
59109;SDS011;44895;47.438;18.978;2024-03-02T07:45:26;34.38;;;24.60;;
59109;SDS011;44895;47.438;18.978;2024-03-02T07:48:30;32.92;;;25.30;;
59109;SDS011;44895;47.438;18.978;2024-03-02T07:51:34;35.40;;;21.80;;
59109;SDS011;44895;47.438;18.978;2024-03-02T07:54:38;32.65;;;24.17;;
59109;SDS011;44895;47.438;18.978;2024-03-02T07:57:41;29.52;;;23.25;;
59109;SDS011;44895;47.438;18.978;2024-03-02T08:00:46;33.30;;;23.10;;
59109;SDS011;44895;47.438;18.978;2024-03-02T08:03:50;29.52;;;22.92;;
59109;SDS011;44895;47.438;18.978;2024-03-02T08:06:54;36.97;;;23.77;;
59109;SDS011;44895;47.438;18.978;2024-03-02T08:09:58;36.00;;;23.60;;
59109;SDS011;44895;47.438;18.978;2024-03-02T08:13:01;32.47;;;22.45;;
59109;SDS011;44895;47.438;18.978;2024-03-02T08:16:05;36.22;;;25.25;;
59109;SDS011;44895;47.438;18.978;2024-03-02T08:19:12;35.63;;;22.70;;
59109;SDS011;44895;47.438;18.978;2024-03-02T08:22:16;31.83;;;22.45;;
59109;SDS011;44895;47.438;18.978;2024-03-02T08:25:19;27.50;;;20.13;;
59109;SDS011;44895;47.438;18.978;2024-03-02T08:28:24;32.17;;;21.20;;
59109;SDS011;44895;47.438;18.978;2024-03-02T08:31:27;32.53;;;22.20;;
59109;SDS011;44895;47.438;18.978;2024-03-02T08:34:31;29.38;;;21.52;;
59109;SDS011;44895;47.438;18.978;2024-03-02T08:37:36;28.65;;;22.45;;
59109;SDS011;44895;47.438;18.978;2024-03-02T08:40:43;35.92;;;22.83;;
59109;SDS011;44895;47.438;18.978;2024-03-02T08:43:47;31.52;;;21.27;;
59109;SDS011;44895;47.438;18.978;2024-03-02T08:46:51;27.65;;;21.25;;
59109;SDS011;44895;47.438;18.978;2024-03-02T08:49:55;28.77;;;22.67;;
59109;SDS011;44895;47.438;18.978;2024-03-02T08:52:58;30.15;;;21.30;;
59109;SDS011;44895;47.438;18.978;2024-03-02T08:56:02;33.05;;;23.17;;
59109;SDS011;44895;47.438;18.978;2024-03-02T08:59:08;26.92;;;19.80;;
59109;SDS011;44895;47.438;18.978;2024-03-02T09:02:12;27.05;;;18.70;;
59109;SDS011;44895;47.438;18.978;2024-03-02T09:05:15;28.50;;;20.95;;
59109;SDS011;44895;47.438;18.978;2024-03-02T09:08:19;30.23;;;21.33;;
59109;SDS011;44895;47.438;18.978;2024-03-02T09:11:23;26.60;;;19.73;;
59109;SDS011;44895;47.438;18.978;2024-03-02T09:14:27;27.35;;;19.38;;
59109;SDS011;44895;47.438;18.978;2024-03-02T09:17:30;25.20;;;18.60;;
59109;SDS011;44895;47.438;18.978;2024-03-02T09:20:34;26.67;;;19.98;;
59109;SDS011;44895;47.438;18.978;2024-03-02T09:23:38;24.10;;;17.35;;
59109;SDS011;44895;47.438;18.978;2024-03-02T09:26:43;25.52;;;18.15;;
59109;SDS011;44895;47.438;18.978;2024-03-02T09:29:47;21.92;;;16.80;;
59109;SDS011;44895;47.438;18.978;2024-03-02T09:32:50;23.58;;;18.00;;
59109;SDS011;44895;47.438;18.978;2024-03-02T09:35:54;31.88;;;18.83;;
59109;SDS011;44895;47.438;18.978;2024-03-02T09:38:58;23.65;;;19.08;;
59109;SDS011;44895;47.438;18.978;2024-03-02T09:42:02;26.13;;;19.65;;
59109;SDS011;44895;47.438;18.978;2024-03-02T09:45:08;29.85;;;18.42;;
59109;SDS011;44895;47.438;18.978;2024-03-02T09:48:12;23.55;;;17.63;;
59109;SDS011;44895;47.438;18.978;2024-03-02T09:51:16;26.40;;;18.85;;
59109;SDS011;44895;47.438;18.978;2024-03-02T09:54:22;23.40;;;16.75;;
59109;SDS011;44895;47.438;18.978;2024-03-02T09:57:26;23.15;;;15.23;;
59109;SDS011;44895;47.438;18.978;2024-03-02T10:00:31;27.92;;;17.00;;
59109;SDS011;44895;47.438;18.978;2024-03-02T10:03:36;23.80;;;17.75;;
59109;SDS011;44895;47.438;18.978;2024-03-02T10:06:40;22.67;;;16.45;;
59109;SDS011;44895;47.438;18.978;2024-03-02T10:09:45;22.48;;;14.68;;
59109;SDS011;44895;47.438;18.978;2024-03-02T10:12:54;20.77;;;15.90;;
59109;SDS011;44895;47.438;18.978;2024-03-02T10:16:13;20.73;;;16.73;;
59109;SDS011;44895;47.438;18.978;2024-03-02T10:19:21;22.55;;;17.05;;
59109;SDS011;44895;47.438;18.978;2024-03-02T10:22:25;23.23;;;16.25;;
59109;SDS011;44895;47.438;18.978;2024-03-02T10:25:30;20.02;;;14.40;;
59109;SDS011;44895;47.438;18.978;2024-03-02T10:28:35;23.02;;;14.90;;
59109;SDS011;44895;47.438;18.978;2024-03-02T10:31:39;20.60;;;15.98;;
59109;SDS011;44895;47.438;18.978;2024-03-02T10:34:45;23.25;;;17.15;;
59109;SDS011;44895;47.438;18.978;2024-03-02T10:37:51;25.17;;;17.02;;
59109;SDS011;44895;47.438;18.978;2024-03-02T10:40:56;22.35;;;16.13;;
59109;SDS011;44895;47.438;18.978;2024-03-02T10:44:03;26.20;;;17.88;;
59109;SDS011;44895;47.438;18.978;2024-03-02T10:47:10;19.88;;;16.92;;
59109;SDS011;44895;47.438;18.978;2024-03-02T10:50:17;21.98;;;15.25;;
59109;SDS011;44895;47.438;18.978;2024-03-02T10:53:20;19.60;;;13.93;;
59109;SDS011;44895;47.438;18.978;2024-03-02T10:56:28;23.30;;;15.57;;
59109;SDS011;44895;47.438;18.978;2024-03-02T10:59:34;21.08;;;15.48;;
59109;SDS011;44895;47.438;18.978;2024-03-02T11:02:38;21.80;;;15.45;;
59109;SDS011;44895;47.438;18.978;2024-03-02T11:05:44;18.60;;;12.98;;
59109;SDS011;44895;47.438;18.978;2024-03-02T11:08:49;17.35;;;12.43;;
59109;SDS011;44895;47.438;18.978;2024-03-02T11:12:06;17.48;;;11.25;;
59109;SDS011;44895;47.438;18.978;2024-03-02T11:15:17;19.15;;;12.48;;
59109;SDS011;44895;47.438;18.978;2024-03-02T11:18:22;16.63;;;12.80;;
59109;SDS011;44895;47.438;18.978;2024-03-02T11:21:27;15.35;;;11.23;;
59109;SDS011;44895;47.438;18.978;2024-03-02T11:24:31;15.27;;;11.70;;
59109;SDS011;44895;47.438;18.978;2024-03-02T11:30:48;15.27;;;10.15;;
59109;SDS011;44895;47.438;18.978;2024-03-02T11:33:52;15.60;;;10.93;;
59109;SDS011;44895;47.438;18.978;2024-03-02T11:36:57;14.48;;;10.25;;
59109;SDS011;44895;47.438;18.978;2024-03-02T11:40:02;14.02;;;9.38;;
59109;SDS011;44895;47.438;18.978;2024-03-02T11:43:06;15.05;;;10.65;;
59109;SDS011;44895;47.438;18.978;2024-03-02T11:46:11;14.95;;;10.90;;
59109;SDS011;44895;47.438;18.978;2024-03-02T11:49:16;15.38;;;10.07;;
59109;SDS011;44895;47.438;18.978;2024-03-02T11:52:42;14.70;;;9.80;;
59109;SDS011;44895;47.438;18.978;2024-03-02T11:55:47;12.32;;;8.40;;
59109;SDS011;44895;47.438;18.978;2024-03-02T11:58:53;12.88;;;8.45;;
59109;SDS011;44895;47.438;18.978;2024-03-02T12:01:57;12.98;;;9.55;;
59109;SDS011;44895;47.438;18.978;2024-03-02T12:05:02;13.38;;;8.68;;
59109;SDS011;44895;47.438;18.978;2024-03-02T12:08:07;14.10;;;9.13;;
59109;SDS011;44895;47.438;18.978;2024-03-02T12:11:12;12.13;;;8.45;;
59109;SDS011;44895;47.438;18.978;2024-03-02T12:14:17;16.00;;;10.45;;
59109;SDS011;44895;47.438;18.978;2024-03-02T12:17:21;19.65;;;10.85;;
59109;SDS011;44895;47.438;18.978;2024-03-02T12:20:25;15.73;;;10.57;;
59109;SDS011;44895;47.438;18.978;2024-03-02T12:23:31;16.63;;;11.38;;
59109;SDS011;44895;47.438;18.978;2024-03-02T12:26:34;14.00;;;9.00;;
59109;SDS011;44895;47.438;18.978;2024-03-02T12:29:38;14.23;;;10.10;;
59109;SDS011;44895;47.438;18.978;2024-03-02T12:32:43;13.98;;;10.13;;
59109;SDS011;44895;47.438;18.978;2024-03-02T12:35:48;14.40;;;10.48;;
59109;SDS011;44895;47.438;18.978;2024-03-02T12:38:53;15.57;;;10.85;;
59109;SDS011;44895;47.438;18.978;2024-03-02T12:41:56;15.77;;;11.10;;
59109;SDS011;44895;47.438;18.978;2024-03-02T12:45:00;15.82;;;11.40;;
59109;SDS011;44895;47.438;18.978;2024-03-02T12:48:04;15.82;;;10.63;;
59109;SDS011;44895;47.438;18.978;2024-03-02T12:51:08;15.52;;;11.93;;
59109;SDS011;44895;47.438;18.978;2024-03-02T12:54:12;18.75;;;11.55;;
59109;SDS011;44895;47.438;18.978;2024-03-02T12:57:19;16.73;;;11.65;;
59109;SDS011;44895;47.438;18.978;2024-03-02T13:00:23;18.37;;;13.90;;
59109;SDS011;44895;47.438;18.978;2024-03-02T13:03:27;17.98;;;12.45;;
59109;SDS011;44895;47.438;18.978;2024-03-02T13:06:32;19.35;;;13.20;;
59109;SDS011;44895;47.438;18.978;2024-03-02T13:09:37;19.10;;;13.52;;
59109;SDS011;44895;47.438;18.978;2024-03-02T13:12:40;17.17;;;13.73;;
59109;SDS011;44895;47.438;18.978;2024-03-02T13:15:44;21.85;;;14.18;;
59109;SDS011;44895;47.438;18.978;2024-03-02T13:18:48;17.98;;;14.40;;
59109;SDS011;44895;47.438;18.978;2024-03-02T13:21:52;19.15;;;13.63;;
59109;SDS011;44895;47.438;18.978;2024-03-02T13:24:56;17.45;;;13.48;;
59109;SDS011;44895;47.438;18.978;2024-03-02T13:28:00;18.25;;;13.23;;
59109;SDS011;44895;47.438;18.978;2024-03-02T13:31:04;19.60;;;12.90;;
59109;SDS011;44895;47.438;18.978;2024-03-02T13:34:08;19.98;;;12.77;;
59109;SDS011;44895;47.438;18.978;2024-03-02T13:37:12;20.38;;;13.00;;
59109;SDS011;44895;47.438;18.978;2024-03-02T13:40:16;16.73;;;11.60;;
59109;SDS011;44895;47.438;18.978;2024-03-02T13:43:23;19.30;;;14.48;;
59109;SDS011;44895;47.438;18.978;2024-03-02T13:46:27;19.60;;;11.75;;
59109;SDS011;44895;47.438;18.978;2024-03-02T13:49:31;17.23;;;12.18;;
59109;SDS011;44895;47.438;18.978;2024-03-02T13:52:46;22.60;;;12.82;;
59109;SDS011;44895;47.438;18.978;2024-03-02T13:55:50;16.80;;;11.13;;
59109;SDS011;44895;47.438;18.978;2024-03-02T13:58:54;18.27;;;13.88;;
59109;SDS011;44895;47.438;18.978;2024-03-02T14:01:58;22.65;;;13.30;;
59109;SDS011;44895;47.438;18.978;2024-03-02T14:05:02;21.73;;;14.65;;
59109;SDS011;44895;47.438;18.978;2024-03-02T14:08:06;20.35;;;12.38;;
59109;SDS011;44895;47.438;18.978;2024-03-02T14:11:10;22.83;;;12.90;;
59109;SDS011;44895;47.438;18.978;2024-03-02T14:14:18;23.25;;;12.48;;
59109;SDS011;44895;47.438;18.978;2024-03-02T14:17:21;19.05;;;12.55;;
59109;SDS011;44895;47.438;18.978;2024-03-02T14:20:25;20.13;;;13.70;;
59109;SDS011;44895;47.438;18.978;2024-03-02T14:23:29;23.20;;;13.95;;
59109;SDS011;44895;47.438;18.978;2024-03-02T14:26:33;24.38;;;16.70;;
59109;SDS011;44895;47.438;18.978;2024-03-02T14:29:37;21.80;;;15.45;;
59109;SDS011;44895;47.438;18.978;2024-03-02T14:32:42;26.80;;;15.93;;
59109;SDS011;44895;47.438;18.978;2024-03-02T14:35:46;29.20;;;16.95;;
59109;SDS011;44895;47.438;18.978;2024-03-02T14:38:50;25.80;;;16.45;;
59109;SDS011;44895;47.438;18.978;2024-03-02T14:41:54;27.30;;;17.83;;
59109;SDS011;44895;47.438;18.978;2024-03-02T14:44:58;28.92;;;19.02;;
59109;SDS011;44895;47.438;18.978;2024-03-02T14:48:02;27.67;;;17.67;;
59109;SDS011;44895;47.438;18.978;2024-03-02T14:51:07;26.70;;;16.02;;
59109;SDS011;44895;47.438;18.978;2024-03-02T14:54:11;28.30;;;17.67;;
59109;SDS011;44895;47.438;18.978;2024-03-02T14:57:14;27.48;;;20.80;;
59109;SDS011;44895;47.438;18.978;2024-03-02T15:00:18;29.25;;;17.48;;
59109;SDS011;44895;47.438;18.978;2024-03-02T15:03:22;27.15;;;19.10;;
59109;SDS011;44895;47.438;18.978;2024-03-02T15:06:25;29.45;;;19.98;;
59109;SDS011;44895;47.438;18.978;2024-03-02T15:09:29;30.27;;;20.60;;
59109;SDS011;44895;47.438;18.978;2024-03-02T15:12:33;33.03;;;20.25;;
59109;SDS011;44895;47.438;18.978;2024-03-02T15:15:37;37.05;;;23.73;;
59109;SDS011;44895;47.438;18.978;2024-03-02T15:18:40;32.55;;;21.15;;
59109;SDS011;44895;47.438;18.978;2024-03-02T15:21:44;34.72;;;21.17;;
59109;SDS011;44895;47.438;18.978;2024-03-02T15:24:48;32.33;;;22.15;;
59109;SDS011;44895;47.438;18.978;2024-03-02T15:27:51;36.10;;;20.80;;
59109;SDS011;44895;47.438;18.978;2024-03-02T15:30:55;30.65;;;20.85;;
59109;SDS011;44895;47.438;18.978;2024-03-02T15:33:59;37.22;;;23.45;;
59109;SDS011;44895;47.438;18.978;2024-03-02T15:37:03;33.88;;;21.75;;
59109;SDS011;44895;47.438;18.978;2024-03-02T15:40:07;34.08;;;22.52;;
59109;SDS011;44895;47.438;18.978;2024-03-02T15:43:11;32.33;;;20.67;;
59109;SDS011;44895;47.438;18.978;2024-03-02T15:46:15;32.53;;;22.20;;
59109;SDS011;44895;47.438;18.978;2024-03-02T15:49:19;33.92;;;23.20;;
59109;SDS011;44895;47.438;18.978;2024-03-02T15:52:23;38.25;;;23.00;;
59109;SDS011;44895;47.438;18.978;2024-03-02T15:55:26;34.97;;;22.52;;
59109;SDS011;44895;47.438;18.978;2024-03-02T15:58:30;33.70;;;23.25;;
59109;SDS011;44895;47.438;18.978;2024-03-02T16:01:34;35.63;;;23.65;;
59109;SDS011;44895;47.438;18.978;2024-03-02T16:04:38;36.50;;;24.55;;
59109;SDS011;44895;47.438;18.978;2024-03-02T16:07:41;35.63;;;22.77;;
59109;SDS011;44895;47.438;18.978;2024-03-02T16:10:45;33.45;;;24.60;;
59109;SDS011;44895;47.438;18.978;2024-03-02T16:13:49;36.30;;;24.60;;
59109;SDS011;44895;47.438;18.978;2024-03-02T16:16:53;42.95;;;26.83;;
59109;SDS011;44895;47.438;18.978;2024-03-02T16:19:57;41.28;;;28.92;;
59109;SDS011;44895;47.438;18.978;2024-03-02T16:23:01;40.50;;;29.17;;
59109;SDS011;44895;47.438;18.978;2024-03-02T16:26:05;42.58;;;30.33;;
59109;SDS011;44895;47.438;18.978;2024-03-02T16:29:08;68.03;;;48.78;;
59109;SDS011;44895;47.438;18.978;2024-03-02T16:32:12;51.08;;;38.97;;
59109;SDS011;44895;47.438;18.978;2024-03-02T16:35:16;48.85;;;40.75;;
59109;SDS011;44895;47.438;18.978;2024-03-02T16:38:20;71.13;;;50.45;;
59109;SDS011;44895;47.438;18.978;2024-03-02T16:41:24;65.82;;;49.28;;
59109;SDS011;44895;47.438;18.978;2024-03-02T16:44:32;58.50;;;46.75;;
59109;SDS011;44895;47.438;18.978;2024-03-02T16:47:37;45.15;;;35.80;;
59109;SDS011;44895;47.438;18.978;2024-03-02T16:50:42;55.63;;;40.42;;
59109;SDS011;44895;47.438;18.978;2024-03-02T16:53:45;52.35;;;37.38;;
59109;SDS011;44895;47.438;18.978;2024-03-02T16:56:49;50.00;;;36.22;;
59109;SDS011;44895;47.438;18.978;2024-03-02T16:59:53;45.83;;;33.13;;
59109;SDS011;44895;47.438;18.978;2024-03-02T17:02:57;41.13;;;27.73;;
59109;SDS011;44895;47.438;18.978;2024-03-02T17:06:01;35.55;;;26.42;;
59109;SDS011;44895;47.438;18.978;2024-03-02T17:09:05;47.65;;;28.92;;
59109;SDS011;44895;47.438;18.978;2024-03-02T17:12:09;41.80;;;26.77;;
59109;SDS011;44895;47.438;18.978;2024-03-02T17:15:13;45.28;;;29.88;;
59109;SDS011;44895;47.438;18.978;2024-03-02T17:18:16;39.55;;;27.75;;
59109;SDS011;44895;47.438;18.978;2024-03-02T17:21:20;37.47;;;25.80;;
59109;SDS011;44895;47.438;18.978;2024-03-02T17:24:25;43.40;;;25.05;;
59109;SDS011;44895;47.438;18.978;2024-03-02T17:27:29;36.33;;;25.30;;
59109;SDS011;44895;47.438;18.978;2024-03-02T17:30:34;37.13;;;25.70;;
59109;SDS011;44895;47.438;18.978;2024-03-02T17:33:38;34.83;;;23.38;;
59109;SDS011;44895;47.438;18.978;2024-03-02T17:36:42;33.05;;;21.27;;
59109;SDS011;44895;47.438;18.978;2024-03-02T17:39:45;33.20;;;24.10;;
59109;SDS011;44895;47.438;18.978;2024-03-02T17:42:51;31.17;;;22.23;;
59109;SDS011;44895;47.438;18.978;2024-03-02T17:45:54;30.45;;;22.13;;
59109;SDS011;44895;47.438;18.978;2024-03-02T17:48:58;32.45;;;21.52;;
59109;SDS011;44895;47.438;18.978;2024-03-02T17:52:02;34.70;;;22.33;;